Terminal Aerodrome Forecast
Issued by NWS Duluth, MN

Current Version | Previous Version | Text Only | Print | Product List | Glossary On
Versions: 1 2 3 4 5 6 7 8 9 10 11 12 13 14 15 16 17 18
189
FTUS43 KDLH 142339
TAFDLH
TAF
KDLH 142339Z 1500/1524 18009KT 2SM -SN BR OVC024
      TEMPO 1500/1502 1SM -SN BKN010 OVC016
     FM150200 17011KT 4SM -SN OVC012
     FM150800 20009KT P6SM -SN OVC020
     FM151400 22005KT P6SM -SN OVC015=

USA.gov is the U.S. government's official web portal to all federal, state and local government web resources and services.